TNCM/SXM METAR and TAF weather

Enter ICAO airport designator
Station Type Date Time Source
TNCM METAR 2022/01/26 20:00 UTC NOAA

TNCM 262000Z 10006KT 9999 FEW018 29/19 Q1016 NOSIG


Station Type Date Time Source
TNCM Decoded METAR 2022/01/26 20:00 UTC NOAA

Juliana Airport, Saint Maarten, Netherlands Antilles (TNCM) 18-03N 063-07W 9M
Jan 26, 2022 - 03:00 PM EST / 2022.01.26 2000 UTC
Wind: from the E (100 degrees) at 7 MPH (6 KT):0
Visibility: greater than 7 mile(s):0
Sky conditions: mostly clear
Temperature: 84 F (29 C)
Dew Point: 66 F (19 C)
Relative Humidity: 54%
Pressure (altimeter): 30.00 in. Hg (1016 hPa)
ob: TNCM 262000Z 10006KT 9999 FEW018 29/19 Q1016 NOSIG
cycle: 20

Station Type Date Time Source
TNCM TAF 2022/01/26 18:39 UTC NOAA

TAF TNCM 261734Z 2618/2718 09007KT P6SM SCT018

Example: see airport list